sensor_id;sensor_type;location;lat;lon;timestamp;pressure;altitude;pressure_sealevel;temperature;humidity
56582;BME280;42463;52.214;21.238;2023-05-07T00:01:54;100969.73;;;8.28;67.68
56582;BME280;42463;52.214;21.238;2023-05-07T00:03:56;100970.94;;;8.31;67.61
56582;BME280;42463;52.214;21.238;2023-05-07T00:05:59;100973.77;;;8.31;67.50
56582;BME280;42463;52.214;21.238;2023-05-07T00:08:03;100971.55;;;8.33;67.44
56582;BME280;42463;52.214;21.238;2023-05-07T00:10:08;100974.73;;;8.32;67.38
56582;BME280;42463;52.214;21.238;2023-05-07T00:12:11;100972.86;;;8.30;67.49
56582;BME280;42463;52.214;21.238;2023-05-07T00:14:13;100977.81;;;8.31;67.68
56582;BME280;42463;52.214;21.238;2023-05-07T00:16:16;100975.59;;;8.27;67.33
56582;BME280;42463;52.214;21.238;2023-05-07T00:18:19;100976.60;;;8.26;67.66
56582;BME280;42463;52.214;21.238;2023-05-07T00:20:25;100978.00;;;8.24;67.48
56582;BME280;42463;52.214;21.238;2023-05-07T00:22:27;100974.70;;;8.19;67.50
56582;BME280;42463;52.214;21.238;2023-05-07T00:24:32;100975.61;;;8.15;67.59
56582;BME280;42463;52.214;21.238;2023-05-07T00:26:35;100978.20;;;8.06;67.73
56582;BME280;42463;52.214;21.238;2023-05-07T00:28:38;100979.29;;;8.01;67.93
56582;BME280;42463;52.214;21.238;2023-05-07T00:30:41;100979.47;;;7.99;68.18
56582;BME280;42463;52.214;21.238;2023-05-07T00:32:44;100981.71;;;8.00;68.15
56582;BME280;42463;52.214;21.238;2023-05-07T00:34:48;100985.40;;;8.01;68.27
56582;BME280;42463;52.214;21.238;2023-05-07T00:36:51;100988.15;;;8.00;68.42
56582;BME280;42463;52.214;21.238;2023-05-07T00:38:56;100981.67;;;7.99;68.34
56582;BME280;42463;52.214;21.238;2023-05-07T00:40:59;100985.94;;;8.01;68.55
56582;BME280;42463;52.214;21.238;2023-05-07T00:43:02;100988.06;;;8.02;68.64
56582;BME280;42463;52.214;21.238;2023-05-07T00:45:06;100989.36;;;8.04;68.68
56582;BME280;42463;52.214;21.238;2023-05-07T00:47:10;100985.32;;;8.05;68.66
56582;BME280;42463;52.214;21.238;2023-05-07T00:49:13;100985.30;;;8.03;68.44
56582;BME280;42463;52.214;21.238;2023-05-07T00:51:17;100989.69;;;8.00;68.58
56582;BME280;42463;52.214;21.238;2023-05-07T00:53:21;100989.65;;;7.97;68.72
56582;BME280;42463;52.214;21.238;2023-05-07T00:55:24;100987.63;;;7.98;68.73
56582;BME280;42463;52.214;21.238;2023-05-07T00:57:27;100992.73;;;8.00;68.65
56582;BME280;42463;52.214;21.238;2023-05-07T00:59:30;100991.83;;;8.03;68.75
56582;BME280;42463;52.214;21.238;2023-05-07T01:03:47;100993.83;;;8.07;68.61
56582;BME280;42463;52.214;21.238;2023-05-07T01:05:50;100990.05;;;8.06;68.62
56582;BME280;42463;52.214;21.238;2023-05-07T01:07:55;100995.15;;;8.07;68.66
56582;BME280;42463;52.214;21.238;2023-05-07T01:10:00;100995.44;;;8.08;68.69
56582;BME280;42463;52.214;21.238;2023-05-07T01:12:04;100994.70;;;8.07;68.54
56582;BME280;42463;52.214;21.238;2023-05-07T01:14:07;100997.23;;;8.03;68.55
56582;BME280;42463;52.214;21.238;2023-05-07T01:16:11;100995.86;;;7.98;68.59
56582;BME280;42463;52.214;21.238;2023-05-07T01:18:15;101001.41;;;7.96;68.68
56582;BME280;42463;52.214;21.238;2023-05-07T01:20:18;100999.65;;;7.93;68.86
56582;BME280;42463;52.214;21.238;2023-05-07T01:22:30;101002.48;;;7.90;68.99
56582;BME280;42463;52.214;21.238;2023-05-07T01:24:34;101006.13;;;7.86;69.14
56582;BME280;42463;52.214;21.238;2023-05-07T01:26:39;101005.48;;;7.83;69.47
56582;BME280;42463;52.214;21.238;2023-05-07T01:28:42;101006.05;;;7.86;69.54
56582;BME280;42463;52.214;21.238;2023-05-07T01:30:58;101008.00;;;7.86;69.54
56582;BME280;42463;52.214;21.238;2023-05-07T01:33:06;101007.70;;;7.87;69.60
56582;BME280;42463;52.214;21.238;2023-05-07T01:35:14;101005.34;;;7.89;69.46
56582;BME280;42463;52.214;21.238;2023-05-07T01:37:18;101010.45;;;7.86;69.45
56582;BME280;42463;52.214;21.238;2023-05-07T01:39:21;101012.63;;;7.84;69.38
56582;BME280;42463;52.214;21.238;2023-05-07T01:41:25;101012.32;;;7.86;69.55
56582;BME280;42463;52.214;21.238;2023-05-07T01:43:29;101013.50;;;7.89;69.54
56582;BME280;42463;52.214;21.238;2023-05-07T01:45:32;101012.71;;;7.93;69.48
56582;BME280;42463;52.214;21.238;2023-05-07T01:47:37;101010.37;;;7.94;69.36
56582;BME280;42463;52.214;21.238;2023-05-07T01:49:42;101014.35;;;7.95;69.57
56582;BME280;42463;52.214;21.238;2023-05-07T01:51:45;101009.56;;;7.99;69.62
56582;BME280;42463;52.214;21.238;2023-05-07T01:53:49;101008.55;;;7.96;69.13
56582;BME280;42463;52.214;21.238;2023-05-07T01:55:53;101008.04;;;7.90;69.17
56582;BME280;42463;52.214;21.238;2023-05-07T01:57:57;101009.00;;;7.85;69.45
56582;BME280;42463;52.214;21.238;2023-05-07T01:59:59;101005.08;;;7.82;69.76
56582;BME280;42463;52.214;21.238;2023-05-07T02:02:02;101008.80;;;7.80;69.84
56582;BME280;42463;52.214;21.238;2023-05-07T02:04:05;101006.39;;;7.79;70.06
56582;BME280;42463;52.214;21.238;2023-05-07T02:06:08;101007.25;;;7.84;70.00
56582;BME280;42463;52.214;21.238;2023-05-07T02:08:14;101004.34;;;7.86;69.82
56582;BME280;42463;52.214;21.238;2023-05-07T02:10:16;101006.42;;;7.85;69.78
56582;BME280;42463;52.214;21.238;2023-05-07T02:12:19;101004.33;;;7.91;70.05
56582;BME280;42463;52.214;21.238;2023-05-07T02:14:22;101005.52;;;7.93;69.80
56582;BME280;42463;52.214;21.238;2023-05-07T02:16:25;101004.85;;;7.89;69.70
56582;BME280;42463;52.214;21.238;2023-05-07T02:18:28;101008.09;;;7.89;69.71
56582;BME280;42463;52.214;21.238;2023-05-07T02:20:31;101006.86;;;7.87;69.71
56582;BME280;42463;52.214;21.238;2023-05-07T02:22:34;101011.21;;;7.85;69.61
56582;BME280;42463;52.214;21.238;2023-05-07T02:24:37;101008.29;;;7.81;69.75
56582;BME280;42463;52.214;21.238;2023-05-07T02:26:40;101016.92;;;7.83;69.89
56582;BME280;42463;52.214;21.238;2023-05-07T02:28:44;101015.13;;;7.82;69.62
56582;BME280;42463;52.214;21.238;2023-05-07T02:30:46;101015.53;;;7.80;69.81
56582;BME280;42463;52.214;21.238;2023-05-07T02:32:49;101022.16;;;7.83;69.98
56582;BME280;42463;52.214;21.238;2023-05-07T02:34:52;101018.80;;;7.82;69.67
56582;BME280;42463;52.214;21.238;2023-05-07T02:36:56;101022.82;;;7.83;69.91
56582;BME280;42463;52.214;21.238;2023-05-07T02:38:59;101021.30;;;7.81;69.69
56582;BME280;42463;52.214;21.238;2023-05-07T02:41:03;101021.48;;;7.78;69.79
56582;BME280;42463;52.214;21.238;2023-05-07T02:43:06;101021.09;;;7.76;69.75
56582;BME280;42463;52.214;21.238;2023-05-07T02:45:11;101017.48;;;7.76;69.77
56582;BME280;42463;52.214;21.238;2023-05-07T02:47:15;101012.98;;;7.71;69.72
56582;BME280;42463;52.214;21.238;2023-05-07T02:49:18;101013.34;;;7.64;69.80
56582;BME280;42463;52.214;21.238;2023-05-07T02:51:22;101009.80;;;7.63;70.01
56582;BME280;42463;52.214;21.238;2023-05-07T02:53:25;101012.70;;;7.66;69.91
56582;BME280;42463;52.214;21.238;2023-05-07T02:55:28;101015.76;;;7.63;69.99
56582;BME280;42463;52.214;21.238;2023-05-07T02:57:31;101010.36;;;7.58;69.73
56582;BME280;42463;52.214;21.238;2023-05-07T02:59:34;101011.58;;;7.56;69.83
56582;BME280;42463;52.214;21.238;2023-05-07T03:01:37;101014.14;;;7.53;70.02
56582;BME280;42463;52.214;21.238;2023-05-07T03:03:43;101016.58;;;7.54;69.92
56582;BME280;42463;52.214;21.238;2023-05-07T03:05:46;101018.80;;;7.56;70.15
56582;BME280;42463;52.214;21.238;2023-05-07T03:07:48;101020.13;;;7.62;70.23
56582;BME280;42463;52.214;21.238;2023-05-07T03:09:51;101021.11;;;7.68;70.22
56582;BME280;42463;52.214;21.238;2023-05-07T03:11:54;101028.61;;;7.70;70.18
56582;BME280;42463;52.214;21.238;2023-05-07T03:13:57;101027.44;;;7.72;70.04
56582;BME280;42463;52.214;21.238;2023-05-07T03:16:00;101029.79;;;7.75;69.99
56582;BME280;42463;52.214;21.238;2023-05-07T03:18:03;101032.49;;;7.73;70.03
56582;BME280;42463;52.214;21.238;2023-05-07T03:20:08;101031.91;;;7.68;69.99
56582;BME280;42463;52.214;21.238;2023-05-07T03:22:12;101035.55;;;7.65;70.45
56582;BME280;42463;52.214;21.238;2023-05-07T03:24:15;101038.10;;;7.68;70.25
56582;BME280;42463;52.214;21.238;2023-05-07T03:26:17;101035.73;;;7.68;70.17
56582;BME280;42463;52.214;21.238;2023-05-07T03:28:20;101042.22;;;7.73;70.05
56582;BME280;42463;52.214;21.238;2023-05-07T03:30:27;101043.84;;;7.78;70.09
56582;BME280;42463;52.214;21.238;2023-05-07T03:32:30;101046.98;;;7.80;69.73
56582;BME280;42463;52.214;21.238;2023-05-07T03:34:33;101055.95;;;7.82;69.88
56582;BME280;42463;52.214;21.238;2023-05-07T03:36:36;101056.59;;;7.80;69.69
56582;BME280;42463;52.214;21.238;2023-05-07T03:38:39;101059.31;;;7.77;69.81
56582;BME280;42463;52.214;21.238;2023-05-07T03:40:42;101058.40;;;7.76;70.04
56582;BME280;42463;52.214;21.238;2023-05-07T03:42:45;101058.61;;;7.76;69.89
56582;BME280;42463;52.214;21.238;2023-05-07T03:44:48;101059.41;;;7.75;70.00
56582;BME280;42463;52.214;21.238;2023-05-07T03:46:51;101061.05;;;7.78;70.18
56582;BME280;42463;52.214;21.238;2023-05-07T03:48:54;101064.33;;;7.79;70.03
56582;BME280;42463;52.214;21.238;2023-05-07T03:50:57;101066.43;;;7.80;70.30
56582;BME280;42463;52.214;21.238;2023-05-07T03:53:01;101069.45;;;7.83;70.18
56582;BME280;42463;52.214;21.238;2023-05-07T03:55:08;101068.10;;;7.84;69.77
56582;BME280;42463;52.214;21.238;2023-05-07T03:57:11;101065.00;;;7.78;69.66
56582;BME280;42463;52.214;21.238;2023-05-07T03:59:14;101068.20;;;7.72;69.68
56582;BME280;42463;52.214;21.238;2023-05-07T04:01:17;101072.77;;;7.71;69.92
56582;BME280;42463;52.214;21.238;2023-05-07T04:03:20;101078.92;;;7.71;69.75
56582;BME280;42463;52.214;21.238;2023-05-07T04:05:24;101081.65;;;7.74;69.99
56582;BME280;42463;52.214;21.238;2023-05-07T04:07:29;101086.05;;;7.75;69.93
56582;BME280;42463;52.214;21.238;2023-05-07T04:09:32;101088.67;;;7.78;70.00
56582;BME280;42463;52.214;21.238;2023-05-07T04:11:36;101088.58;;;7.80;69.97
56582;BME280;42463;52.214;21.238;2023-05-07T04:13:39;101088.41;;;7.80;70.18
56582;BME280;42463;52.214;21.238;2023-05-07T04:15:42;101091.06;;;7.81;69.90
56582;BME280;42463;52.214;21.238;2023-05-07T04:17:47;101088.34;;;7.81;70.15
56582;BME280;42463;52.214;21.238;2023-05-07T04:19:49;101096.34;;;7.81;70.15
56582;BME280;42463;52.214;21.238;2023-05-07T04:21:52;101100.39;;;7.85;70.54
56582;BME280;42463;52.214;21.238;2023-05-07T04:23:56;101103.56;;;7.87;70.24
56582;BME280;42463;52.214;21.238;2023-05-07T04:25:59;101103.15;;;7.88;70.35
56582;BME280;42463;52.214;21.238;2023-05-07T04:28:15;101104.39;;;7.89;70.18
56582;BME280;42463;52.214;21.238;2023-05-07T04:30:18;101106.90;;;7.87;70.01
56582;BME280;42463;52.214;21.238;2023-05-07T04:32:20;101103.21;;;7.85;70.16
56582;BME280;42463;52.214;21.238;2023-05-07T04:34:23;101106.09;;;7.84;70.18
56582;BME280;42463;52.214;21.238;2023-05-07T04:36:26;101108.22;;;7.83;70.16
56582;BME280;42463;52.214;21.238;2023-05-07T04:38:34;101110.05;;;7.86;70.36
56582;BME280;42463;52.214;21.238;2023-05-07T04:40:38;101113.51;;;7.86;70.14
56582;BME280;42463;52.214;21.238;2023-05-07T04:42:42;101113.52;;;7.85;70.24
56582;BME280;42463;52.214;21.238;2023-05-07T04:44:46;101112.27;;;7.85;70.04
56582;BME280;42463;52.214;21.238;2023-05-07T04:46:48;101117.16;;;7.87;70.35
56582;BME280;42463;52.214;21.238;2023-05-07T04:48:54;101117.50;;;7.90;70.34
56582;BME280;42463;52.214;21.238;2023-05-07T04:50:57;101119.41;;;7.91;70.10
56582;BME280;42463;52.214;21.238;2023-05-07T04:53:00;101119.00;;;7.91;70.03
56582;BME280;42463;52.214;21.238;2023-05-07T04:55:07;101121.23;;;7.92;70.33
56582;BME280;42463;52.214;21.238;2023-05-07T04:57:12;101121.82;;;7.92;70.22
56582;BME280;42463;52.214;21.238;2023-05-07T04:59:15;101123.34;;;7.94;70.31
56582;BME280;42463;52.214;21.238;2023-05-07T05:01:18;101127.14;;;7.96;70.50
56582;BME280;42463;52.214;21.238;2023-05-07T05:03:21;101124.04;;;7.95;70.20
56582;BME280;42463;52.214;21.238;2023-05-07T05:05:24;101129.04;;;7.93;70.19
56582;BME280;42463;52.214;21.238;2023-05-07T05:07:28;101129.66;;;7.92;70.21
56582;BME280;42463;52.214;21.238;2023-05-07T05:09:30;101135.10;;;7.95;70.21
56582;BME280;42463;52.214;21.238;2023-05-07T05:11:33;101138.77;;;7.99;70.34
56582;BME280;42463;52.214;21.238;2023-05-07T05:13:36;101143.36;;;8.01;69.97
56582;BME280;42463;52.214;21.238;2023-05-07T05:15:45;101141.97;;;8.03;70.09
56582;BME280;42463;52.214;21.238;2023-05-07T05:17:48;101148.05;;;8.06;69.69
56582;BME280;42463;52.214;21.238;2023-05-07T05:19:51;101144.83;;;8.05;69.40
56582;BME280;42463;52.214;21.238;2023-05-07T05:21:54;101146.52;;;8.02;69.37
56582;BME280;42463;52.214;21.238;2023-05-07T05:23:57;101151.39;;;8.00;69.54
56582;BME280;42463;52.214;21.238;2023-05-07T05:26:00;101150.56;;;8.00;69.48
56582;BME280;42463;52.214;21.238;2023-05-07T05:28:05;101159.02;;;8.03;69.30
56582;BME280;42463;52.214;21.238;2023-05-07T05:30:12;101160.22;;;8.03;69.34
56582;BME280;42463;52.214;21.238;2023-05-07T05:32:15;101161.46;;;8.05;69.40
56582;BME280;42463;52.214;21.238;2023-05-07T05:34:18;101160.52;;;8.07;69.50
56582;BME280;42463;52.214;21.238;2023-05-07T05:36:22;101160.24;;;8.07;69.34
56582;BME280;42463;52.214;21.238;2023-05-07T05:38:26;101157.79;;;8.06;69.32
56582;BME280;42463;52.214;21.238;2023-05-07T05:40:28;101160.91;;;8.11;69.60
56582;BME280;42463;52.214;21.238;2023-05-07T05:42:31;101161.80;;;8.15;69.45
56582;BME280;42463;52.214;21.238;2023-05-07T05:44:34;101168.55;;;8.18;69.40
56582;BME280;42463;52.214;21.238;2023-05-07T05:46:37;101172.61;;;8.19;69.55
56582;BME280;42463;52.214;21.238;2023-05-07T05:48:40;101171.30;;;8.22;69.35
56582;BME280;42463;52.214;21.238;2023-05-07T05:50:43;101176.83;;;8.28;69.19
56582;BME280;42463;52.214;21.238;2023-05-07T05:52:46;101173.30;;;8.27;68.52
56582;BME280;42463;52.214;21.238;2023-05-07T05:54:50;101174.33;;;8.28;68.55
56582;BME280;42463;52.214;21.238;2023-05-07T05:56:53;101173.81;;;8.30;68.66
56582;BME280;42463;52.214;21.238;2023-05-07T05:58:56;101172.70;;;8.33;68.37
56582;BME280;42463;52.214;21.238;2023-05-07T06:00:59;101176.76;;;8.34;68.34
56582;BME280;42463;52.214;21.238;2023-05-07T06:03:03;101177.05;;;8.35;68.10
56582;BME280;42463;52.214;21.238;2023-05-07T06:05:08;101179.79;;;8.34;68.14
56582;BME280;42463;52.214;21.238;2023-05-07T06:07:11;101182.73;;;8.36;68.26
56582;BME280;42463;52.214;21.238;2023-05-07T06:09:13;101185.38;;;8.41;68.43
56582;BME280;42463;52.214;21.238;2023-05-07T06:11:18;101186.85;;;8.45;68.19
56582;BME280;42463;52.214;21.238;2023-05-07T06:13:21;101184.88;;;8.46;67.76
56582;BME280;42463;52.214;21.238;2023-05-07T06:15:26;101185.52;;;8.49;67.76
56582;BME280;42463;52.214;21.238;2023-05-07T06:17:29;101188.31;;;8.53;67.78
56582;BME280;42463;52.214;21.238;2023-05-07T06:19:32;101189.73;;;8.59;67.77
56582;BME280;42463;52.214;21.238;2023-05-07T06:21:35;101188.14;;;8.63;67.59
56582;BME280;42463;52.214;21.238;2023-05-07T06:23:38;101188.48;;;8.67;67.38
56582;BME280;42463;52.214;21.238;2023-05-07T06:25:45;101192.50;;;8.68;67.32
56582;BME280;42463;52.214;21.238;2023-05-07T06:27:48;101196.11;;;8.69;67.40
56582;BME280;42463;52.214;21.238;2023-05-07T06:29:51;101196.95;;;8.73;67.14
56582;BME280;42463;52.214;21.238;2023-05-07T06:31:54;101200.48;;;8.77;67.01
56582;BME280;42463;52.214;21.238;2023-05-07T06:33:58;101198.39;;;8.78;66.70
56582;BME280;42463;52.214;21.238;2023-05-07T06:36:08;101199.90;;;8.81;66.58
56582;BME280;42463;52.214;21.238;2023-05-07T06:38:12;101199.19;;;8.86;66.54
56582;BME280;42463;52.214;21.238;2023-05-07T06:40:15;101197.88;;;8.89;66.45
56582;BME280;42463;52.214;21.238;2023-05-07T06:42:20;101202.41;;;8.92;66.34
56582;BME280;42463;52.214;21.238;2023-05-07T06:44:24;101204.02;;;8.94;65.96
56582;BME280;42463;52.214;21.238;2023-05-07T06:46:43;101204.88;;;8.95;65.91
56582;BME280;42463;52.214;21.238;2023-05-07T06:48:46;101210.55;;;8.99;65.88
56582;BME280;42463;52.214;21.238;2023-05-07T06:50:48;101213.27;;;9.01;66.06
56582;BME280;42463;52.214;21.238;2023-05-07T06:52:51;101214.98;;;8.99;65.69
56582;BME280;42463;52.214;21.238;2023-05-07T06:54:54;101216.60;;;9.02;65.98
56582;BME280;42463;52.214;21.238;2023-05-07T06:56:57;101214.22;;;9.02;66.13
56582;BME280;42463;52.214;21.238;2023-05-07T06:59:02;101217.89;;;9.05;66.30
56582;BME280;42463;52.214;21.238;2023-05-07T07:01:08;101218.44;;;9.09;66.09
56582;BME280;42463;52.214;21.238;2023-05-07T07:03:11;101219.55;;;9.10;66.04
56582;BME280;42463;52.214;21.238;2023-05-07T07:05:13;101221.81;;;9.11;66.02
56582;BME280;42463;52.214;21.238;2023-05-07T07:07:17;101226.47;;;9.13;65.62
56582;BME280;42463;52.214;21.238;2023-05-07T07:09:21;101226.65;;;9.10;65.43
56582;BME280;42463;52.214;21.238;2023-05-07T07:11:24;101228.23;;;9.12;65.49
56582;BME280;42463;52.214;21.238;2023-05-07T07:13:27;101230.92;;;9.13;64.99
56582;BME280;42463;52.214;21.238;2023-05-07T07:15:30;101231.23;;;9.15;64.83
56582;BME280;42463;52.214;21.238;2023-05-07T07:17:33;101231.16;;;9.18;64.90
56582;BME280;42463;52.214;21.238;2023-05-07T07:19:36;101229.70;;;9.21;64.67
56582;BME280;42463;52.214;21.238;2023-05-07T07:21:40;101234.73;;;9.21;64.58
56582;BME280;42463;52.214;21.238;2023-05-07T07:23:42;101235.75;;;9.21;64.50
56582;BME280;42463;52.214;21.238;2023-05-07T07:25:45;101231.45;;;9.26;64.65
56582;BME280;42463;52.214;21.238;2023-05-07T07:27:48;101238.92;;;9.31;64.79
56582;BME280;42463;52.214;21.238;2023-05-07T07:29:52;101244.87;;;9.33;64.59
56582;BME280;42463;52.214;21.238;2023-05-07T07:31:55;101242.30;;;9.34;64.53
56582;BME280;42463;52.214;21.238;2023-05-07T07:33:58;101251.39;;;9.35;64.51
56582;BME280;42463;52.214;21.238;2023-05-07T07:36:00;101247.42;;;9.36;64.00
56582;BME280;42463;52.214;21.238;2023-05-07T07:38:03;101249.71;;;9.34;63.50
56582;BME280;42463;52.214;21.238;2023-05-07T07:40:08;101251.25;;;9.36;63.88
56582;BME280;42463;52.214;21.238;2023-05-07T07:42:12;101249.55;;;9.38;63.79
56582;BME280;42463;52.214;21.238;2023-05-07T07:44:15;101249.30;;;9.40;63.78
56582;BME280;42463;52.214;21.238;2023-05-07T07:46:18;101254.62;;;9.48;63.83
56582;BME280;42463;52.214;21.238;2023-05-07T07:48:20;101255.79;;;9.55;63.28
56582;BME280;42463;52.214;21.238;2023-05-07T07:50:23;101261.90;;;9.56;62.80
56582;BME280;42463;52.214;21.238;2023-05-07T07:52:26;101260.81;;;9.60;62.72
56582;BME280;42463;52.214;21.238;2023-05-07T07:54:29;101259.56;;;9.60;62.57
56582;BME280;42463;52.214;21.238;2023-05-07T07:56:33;101256.11;;;9.63;62.56
56582;BME280;42463;52.214;21.238;2023-05-07T07:58:36;101258.27;;;9.68;62.46
56582;BME280;42463;52.214;21.238;2023-05-07T08:00:40;101257.58;;;9.72;62.34
56582;BME280;42463;52.214;21.238;2023-05-07T08:02:43;101259.80;;;9.74;61.99
56582;BME280;42463;52.214;21.238;2023-05-07T08:04:48;101260.84;;;9.78;62.11
56582;BME280;42463;52.214;21.238;2023-05-07T08:06:50;101259.98;;;9.85;62.54
56582;BME280;42463;52.214;21.238;2023-05-07T08:08:53;101264.49;;;9.91;62.43
56582;BME280;42463;52.214;21.238;2023-05-07T08:10:56;101258.46;;;9.90;61.93
56582;BME280;42463;52.214;21.238;2023-05-07T08:13:03;101261.80;;;9.91;61.87
56582;BME280;42463;52.214;21.238;2023-05-07T08:15:09;101263.05;;;9.94;61.24
56582;BME280;42463;52.214;21.238;2023-05-07T08:17:12;101263.67;;;9.97;60.94
56582;BME280;42463;52.214;21.238;2023-05-07T08:19:18;101269.58;;;10.01;61.13
56582;BME280;42463;52.214;21.238;2023-05-07T08:21:21;101266.56;;;10.01;60.53
56582;BME280;42463;52.214;21.238;2023-05-07T08:23:24;101269.82;;;10.02;60.74
56582;BME280;42463;52.214;21.238;2023-05-07T08:25:27;101269.23;;;10.04;60.34
56582;BME280;42463;52.214;21.238;2023-05-07T08:27:30;101269.21;;;10.09;60.23
56582;BME280;42463;52.214;21.238;2023-05-07T08:29:33;101276.64;;;10.15;60.11
56582;BME280;42463;52.214;21.238;2023-05-07T08:31:36;101280.01;;;10.20;59.61
56582;BME280;42463;52.214;21.238;2023-05-07T08:33:41;101274.95;;;10.24;58.81
56582;BME280;42463;52.214;21.238;2023-05-07T08:35:43;101273.73;;;10.27;59.23
56582;BME280;42463;52.214;21.238;2023-05-07T08:37:47;101274.45;;;10.36;58.96
56582;BME280;42463;52.214;21.238;2023-05-07T08:39:51;101279.04;;;10.42;58.72
56582;BME280;42463;52.214;21.238;2023-05-07T08:41:56;101274.27;;;10.46;58.57
56582;BME280;42463;52.214;21.238;2023-05-07T08:44:03;101279.66;;;10.51;58.27
56582;BME280;42463;52.214;21.238;2023-05-07T08:46:10;101276.52;;;10.57;58.38
56582;BME280;42463;52.214;21.238;2023-05-07T08:48:16;101286.20;;;10.55;57.75
56582;BME280;42463;52.214;21.238;2023-05-07T08:50:23;101282.34;;;10.48;57.37
56582;BME280;42463;52.214;21.238;2023-05-07T08:52:27;101285.56;;;10.45;57.34
56582;BME280;42463;52.214;21.238;2023-05-07T08:54:31;101287.47;;;10.45;57.61
56582;BME280;42463;52.214;21.238;2023-05-07T08:56:35;101286.50;;;10.43;57.17
56582;BME280;42463;52.214;21.238;2023-05-07T08:58:38;101291.45;;;10.42;57.31
56582;BME280;42463;52.214;21.238;2023-05-07T09:00:42;101291.73;;;10.42;57.52
56582;BME280;42463;52.214;21.238;2023-05-07T09:02:45;101300.47;;;10.47;57.69
56582;BME280;42463;52.214;21.238;2023-05-07T09:04:48;101295.46;;;10.52;57.22
56582;BME280;42463;52.214;21.238;2023-05-07T09:06:51;101298.26;;;10.58;56.93
56582;BME280;42463;52.214;21.238;2023-05-07T09:08:55;101295.10;;;10.62;56.52
56582;BME280;42463;52.214;21.238;2023-05-07T09:11:00;101297.65;;;10.64;56.45
56582;BME280;42463;52.214;21.238;2023-05-07T09:13:04;101305.66;;;10.69;55.92
56582;BME280;42463;52.214;21.238;2023-05-07T09:15:09;101300.08;;;10.74;55.82
56582;BME280;42463;52.214;21.238;2023-05-07T09:17:12;101303.11;;;10.78;55.73
56582;BME280;42463;52.214;21.238;2023-05-07T09:19:15;101308.16;;;10.83;55.08
56582;BME280;42463;52.214;21.238;2023-05-07T09:21:21;101307.65;;;10.81;53.79
56582;BME280;42463;52.214;21.238;2023-05-07T09:23:25;101305.09;;;10.81;53.79
56582;BME280;42463;52.214;21.238;2023-05-07T09:25:29;101311.27;;;10.83;54.12
56582;BME280;42463;52.214;21.238;2023-05-07T09:27:33;101312.70;;;10.86;54.10
56582;BME280;42463;52.214;21.238;2023-05-07T09:29:36;101312.98;;;10.86;53.98
56582;BME280;42463;52.214;21.238;2023-05-07T09:31:40;101314.11;;;10.89;54.11
56582;BME280;42463;52.214;21.238;2023-05-07T09:33:44;101317.52;;;10.93;54.34
56582;BME280;42463;52.214;21.238;2023-05-07T09:35:51;101316.65;;;10.95;53.79
56582;BME280;42463;52.214;21.238;2023-05-07T09:37:55;101317.95;;;10.99;54.20
56582;BME280;42463;52.214;21.238;2023-05-07T09:39:58;101321.23;;;11.02;54.38
56582;BME280;42463;52.214;21.238;2023-05-07T09:42:02;101320.98;;;11.05;54.26
56582;BME280;42463;52.214;21.238;2023-05-07T09:44:09;101328.30;;;11.07;54.21
56582;BME280;42463;52.214;21.238;2023-05-07T09:46:16;101330.85;;;11.09;53.90
56582;BME280;42463;52.214;21.238;2023-05-07T09:48:26;101331.75;;;11.10;53.66
56582;BME280;42463;52.214;21.238;2023-05-07T09:50:35;101335.70;;;11.12;53.02
56582;BME280;42463;52.214;21.238;2023-05-07T09:52:39;101333.30;;;11.10;52.23
56582;BME280;42463;52.214;21.238;2023-05-07T09:54:47;101329.59;;;11.07;52.31
56582;BME280;42463;52.214;21.238;2023-05-07T09:56:53;101332.05;;;11.10;52.42
56582;BME280;42463;52.214;21.238;2023-05-07T09:58:56;101332.03;;;11.15;52.95
56582;BME280;42463;52.214;21.238;2023-05-07T10:01:01;101333.33;;;11.23;52.64
56582;BME280;42463;52.214;21.238;2023-05-07T10:03:06;101336.11;;;11.23;51.99
56582;BME280;42463;52.214;21.238;2023-05-07T10:05:17;101339.64;;;11.23;52.52
56582;BME280;42463;52.214;21.238;2023-05-07T10:07:21;101343.68;;;11.24;52.86
56582;BME280;42463;52.214;21.238;2023-05-07T10:09:26;101346.44;;;11.26;52.09
56582;BME280;42463;52.214;21.238;2023-05-07T10:11:29;101343.75;;;11.24;51.83
56582;BME280;42463;52.214;21.238;2023-05-07T10:13:34;101344.00;;;11.21;51.69
56582;BME280;42463;52.214;21.238;2023-05-07T10:15:38;101354.92;;;11.16;51.46
56582;BME280;42463;52.214;21.238;2023-05-07T10:17:42;101353.10;;;11.13;51.94
56582;BME280;42463;52.214;21.238;2023-05-07T10:19:45;101350.02;;;11.12;51.83
56582;BME280;42463;52.214;21.238;2023-05-07T10:21:55;101353.83;;;11.07;51.91
56582;BME280;42463;52.214;21.238;2023-05-07T10:24:00;101360.40;;;11.01;52.12
56582;BME280;42463;52.214;21.238;2023-05-07T10:26:08;101361.52;;;10.96;52.16
56582;BME280;42463;52.214;21.238;2023-05-07T10:28:12;101358.92;;;10.92;51.55
56582;BME280;42463;52.214;21.238;2023-05-07T10:30:29;101364.92;;;10.90;51.93
56582;BME280;42463;52.214;21.238;2023-05-07T10:32:40;101367.75;;;10.91;51.89
56582;BME280;42463;52.214;21.238;2023-05-07T10:34:49;101367.21;;;10.82;51.71
56582;BME280;42463;52.214;21.238;2023-05-07T10:36:54;101373.67;;;10.74;52.03
56582;BME280;42463;52.214;21.238;2023-05-07T10:38:59;101373.85;;;10.72;51.92
56582;BME280;42463;52.214;21.238;2023-05-07T10:41:03;101367.95;;;10.73;52.15
56582;BME280;42463;52.214;21.238;2023-05-07T10:43:09;101369.33;;;10.70;52.40
56582;BME280;42463;52.214;21.238;2023-05-07T10:45:22;101370.32;;;10.68;52.37
56582;BME280;42463;52.214;21.238;2023-05-07T10:47:25;101372.11;;;10.66;52.45
56582;BME280;42463;52.214;21.238;2023-05-07T10:49:31;101370.38;;;10.64;52.50